sensor_id;sensor_type;location;lat;lon;timestamp;P1;durP1;ratioP1;P2;durP2;ratioP2
26474;SDS011;14161;52.270;10.334;2023-06-10T00:00:00;7.43;;;3.03;;
26474;SDS011;14161;52.270;10.334;2023-06-10T00:02:26;5.05;;;2.45;;
26474;SDS011;14161;52.270;10.334;2023-06-10T00:04:52;4.30;;;2.22;;
26474;SDS011;14161;52.270;10.334;2023-06-10T00:07:17;3.03;;;2.38;;
26474;SDS011;14161;52.270;10.334;2023-06-10T00:09:43;3.88;;;2.20;;
26474;SDS011;14161;52.270;10.334;2023-06-10T00:12:09;6.30;;;2.50;;
26474;SDS011;14161;52.270;10.334;2023-06-10T00:14:38;3.35;;;2.63;;
26474;SDS011;14161;52.270;10.334;2023-06-10T00:17:05;4.63;;;2.85;;
26474;SDS011;14161;52.270;10.334;2023-06-10T00:19:35;4.78;;;2.72;;
26474;SDS011;14161;52.270;10.334;2023-06-10T00:22:06;5.35;;;2.22;;
26474;SDS011;14161;52.270;10.334;2023-06-10T00:24:32;4.00;;;2.30;;
26474;SDS011;14161;52.270;10.334;2023-06-10T00:26:57;4.15;;;2.33;;
26474;SDS011;14161;52.270;10.334;2023-06-10T00:29:23;3.58;;;2.30;;
26474;SDS011;14161;52.270;10.334;2023-06-10T00:31:48;5.32;;;2.63;;
26474;SDS011;14161;52.270;10.334;2023-06-10T00:34:14;5.28;;;2.47;;
26474;SDS011;14161;52.270;10.334;2023-06-10T00:36:39;2.65;;;2.28;;
26474;SDS011;14161;52.270;10.334;2023-06-10T00:39:05;3.25;;;2.15;;
26474;SDS011;14161;52.270;10.334;2023-06-10T00:41:31;2.90;;;2.17;;
26474;SDS011;14161;52.270;10.334;2023-06-10T00:43:56;6.30;;;2.40;;
26474;SDS011;14161;52.270;10.334;2023-06-10T00:46:22;4.75;;;2.40;;
26474;SDS011;14161;52.270;10.334;2023-06-10T00:48:48;3.70;;;2.67;;
26474;SDS011;14161;52.270;10.334;2023-06-10T00:51:15;4.85;;;2.47;;
26474;SDS011;14161;52.270;10.334;2023-06-10T00:53:41;6.20;;;2.35;;
26474;SDS011;14161;52.270;10.334;2023-06-10T00:56:07;7.97;;;2.50;;
26474;SDS011;14161;52.270;10.334;2023-06-10T00:58:34;6.22;;;3.20;;
26474;SDS011;14161;52.270;10.334;2023-06-10T01:01:00;4.35;;;2.28;;
26474;SDS011;14161;52.270;10.334;2023-06-10T01:03:26;3.75;;;2.28;;
26474;SDS011;14161;52.270;10.334;2023-06-10T01:06:30;3.88;;;2.58;;
26474;SDS011;14161;52.270;10.334;2023-06-10T01:11:41;3.53;;;2.40;;
26474;SDS011;14161;52.270;10.334;2023-06-10T01:14:09;6.40;;;2.85;;
26474;SDS011;14161;52.270;10.334;2023-06-10T01:16:35;7.13;;;3.10;;
26474;SDS011;14161;52.270;10.334;2023-06-10T01:19:02;5.38;;;2.53;;
26474;SDS011;14161;52.270;10.334;2023-06-10T01:21:28;4.50;;;2.38;;
26474;SDS011;14161;52.270;10.334;2023-06-10T01:23:53;3.80;;;2.40;;
26474;SDS011;14161;52.270;10.334;2023-06-10T01:26:22;4.10;;;2.45;;
26474;SDS011;14161;52.270;10.334;2023-06-10T01:34:37;4.45;;;2.42;;
26474;SDS011;14161;52.270;10.334;2023-06-10T01:37:04;4.75;;;2.60;;
26474;SDS011;14161;52.270;10.334;2023-06-10T01:39:30;5.07;;;2.75;;
26474;SDS011;14161;52.270;10.334;2023-06-10T01:41:57;4.55;;;2.90;;
26474;SDS011;14161;52.270;10.334;2023-06-10T01:44:23;5.30;;;2.63;;
26474;SDS011;14161;52.270;10.334;2023-06-10T01:46:48;6.43;;;2.78;;
26474;SDS011;14161;52.270;10.334;2023-06-10T01:49:14;6.05;;;2.88;;
26474;SDS011;14161;52.270;10.334;2023-06-10T01:51:42;4.03;;;2.80;;
26474;SDS011;14161;52.270;10.334;2023-06-10T01:54:07;4.07;;;2.03;;
26474;SDS011;14161;52.270;10.334;2023-06-10T01:56:33;5.05;;;2.45;;
26474;SDS011;14161;52.270;10.334;2023-06-10T01:58:58;6.65;;;3.20;;
26474;SDS011;14161;52.270;10.334;2023-06-10T02:01:25;5.40;;;3.00;;
26474;SDS011;14161;52.270;10.334;2023-06-10T02:03:51;4.15;;;2.60;;
26474;SDS011;14161;52.270;10.334;2023-06-10T02:06:16;3.78;;;2.45;;
26474;SDS011;14161;52.270;10.334;2023-06-10T02:08:42;5.32;;;2.47;;
26474;SDS011;14161;52.270;10.334;2023-06-10T02:11:07;4.75;;;2.47;;
26474;SDS011;14161;52.270;10.334;2023-06-10T02:13:33;5.63;;;2.60;;
26474;SDS011;14161;52.270;10.334;2023-06-10T02:15:58;5.32;;;2.35;;
26474;SDS011;14161;52.270;10.334;2023-06-10T02:18:28;4.47;;;2.50;;
26474;SDS011;14161;52.270;10.334;2023-06-10T02:20:53;4.13;;;2.30;;
26474;SDS011;14161;52.270;10.334;2023-06-10T02:23:19;3.88;;;2.53;;
26474;SDS011;14161;52.270;10.334;2023-06-10T02:25:44;5.45;;;2.38;;
26474;SDS011;14161;52.270;10.334;2023-06-10T02:28:10;5.72;;;2.80;;
26474;SDS011;14161;52.270;10.334;2023-06-10T02:30:38;5.05;;;2.65;;
26474;SDS011;14161;52.270;10.334;2023-06-10T02:33:06;8.02;;;2.83;;
26474;SDS011;14161;52.270;10.334;2023-06-10T02:35:36;6.78;;;3.17;;
26474;SDS011;14161;52.270;10.334;2023-06-10T02:38:02;4.53;;;2.67;;
26474;SDS011;14161;52.270;10.334;2023-06-10T02:40:29;4.35;;;2.65;;
26474;SDS011;14161;52.270;10.334;2023-06-10T02:42:55;5.15;;;3.10;;
26474;SDS011;14161;52.270;10.334;2023-06-10T02:45:20;3.33;;;2.22;;
26474;SDS011;14161;52.270;10.334;2023-06-10T02:47:46;7.25;;;3.00;;
26474;SDS011;14161;52.270;10.334;2023-06-10T02:50:12;5.32;;;3.00;;
26474;SDS011;14161;52.270;10.334;2023-06-10T02:52:48;4.60;;;2.53;;
26474;SDS011;14161;52.270;10.334;2023-06-10T02:55:13;7.40;;;3.28;;
26474;SDS011;14161;52.270;10.334;2023-06-10T02:57:45;4.50;;;2.90;;
26474;SDS011;14161;52.270;10.334;2023-06-10T03:00:10;4.90;;;2.67;;
26474;SDS011;14161;52.270;10.334;2023-06-10T03:02:38;4.82;;;2.88;;
26474;SDS011;14161;52.270;10.334;2023-06-10T03:05:05;6.22;;;2.70;;
26474;SDS011;14161;52.270;10.334;2023-06-10T03:07:36;4.72;;;2.58;;
26474;SDS011;14161;52.270;10.334;2023-06-10T03:10:02;4.10;;;2.65;;
26474;SDS011;14161;52.270;10.334;2023-06-10T03:12:28;3.58;;;2.63;;
26474;SDS011;14161;52.270;10.334;2023-06-10T03:14:53;5.20;;;2.60;;
26474;SDS011;14161;52.270;10.334;2023-06-10T03:17:20;4.65;;;2.85;;
26474;SDS011;14161;52.270;10.334;2023-06-10T03:19:45;5.57;;;3.15;;
26474;SDS011;14161;52.270;10.334;2023-06-10T03:22:12;3.95;;;2.63;;
26474;SDS011;14161;52.270;10.334;2023-06-10T03:24:58;5.00;;;2.92;;
26474;SDS011;14161;52.270;10.334;2023-06-10T03:27:25;4.90;;;2.70;;
26474;SDS011;14161;52.270;10.334;2023-06-10T03:29:55;3.72;;;2.28;;
26474;SDS011;14161;52.270;10.334;2023-06-10T03:32:21;5.78;;;2.90;;
26474;SDS011;14161;52.270;10.334;2023-06-10T03:34:46;3.60;;;2.60;;
26474;SDS011;14161;52.270;10.334;2023-06-10T03:37:13;4.45;;;2.70;;
26474;SDS011;14161;52.270;10.334;2023-06-10T03:39:39;7.25;;;2.92;;
26474;SDS011;14161;52.270;10.334;2023-06-10T03:42:05;6.35;;;2.53;;
26474;SDS011;14161;52.270;10.334;2023-06-10T03:44:31;5.65;;;3.15;;
26474;SDS011;14161;52.270;10.334;2023-06-10T03:46:57;3.38;;;2.53;;
26474;SDS011;14161;52.270;10.334;2023-06-10T03:49:24;3.90;;;2.80;;
26474;SDS011;14161;52.270;10.334;2023-06-10T03:51:53;5.07;;;2.95;;
26474;SDS011;14161;52.270;10.334;2023-06-10T03:54:19;5.07;;;2.97;;
26474;SDS011;14161;52.270;10.334;2023-06-10T03:56:45;8.65;;;2.80;;
26474;SDS011;14161;52.270;10.334;2023-06-10T03:59:13;4.28;;;3.05;;
26474;SDS011;14161;52.270;10.334;2023-06-10T04:01:39;6.60;;;2.75;;
26474;SDS011;14161;52.270;10.334;2023-06-10T04:04:06;4.97;;;2.60;;
26474;SDS011;14161;52.270;10.334;2023-06-10T04:06:33;4.55;;;2.70;;
26474;SDS011;14161;52.270;10.334;2023-06-10T04:08:58;5.03;;;3.10;;
26474;SDS011;14161;52.270;10.334;2023-06-10T04:11:26;6.18;;;3.55;;
26474;SDS011;14161;52.270;10.334;2023-06-10T04:13:52;7.05;;;3.50;;
26474;SDS011;14161;52.270;10.334;2023-06-10T04:16:17;6.50;;;2.97;;
26474;SDS011;14161;52.270;10.334;2023-06-10T04:18:43;6.05;;;3.15;;
26474;SDS011;14161;52.270;10.334;2023-06-10T04:21:09;8.02;;;3.45;;
26474;SDS011;14161;52.270;10.334;2023-06-10T04:23:35;5.38;;;2.80;;
26474;SDS011;14161;52.270;10.334;2023-06-10T04:26:02;7.60;;;3.42;;
26474;SDS011;14161;52.270;10.334;2023-06-10T04:28:28;4.30;;;2.90;;
26474;SDS011;14161;52.270;10.334;2023-06-10T04:30:55;5.10;;;3.30;;
26474;SDS011;14161;52.270;10.334;2023-06-10T04:33:20;6.63;;;2.90;;
26474;SDS011;14161;52.270;10.334;2023-06-10T04:35:46;5.43;;;3.08;;
26474;SDS011;14161;52.270;10.334;2023-06-10T04:38:13;6.05;;;3.70;;
26474;SDS011;14161;52.270;10.334;2023-06-10T04:40:39;5.93;;;3.30;;
26474;SDS011;14161;52.270;10.334;2023-06-10T04:43:05;4.30;;;3.08;;
26474;SDS011;14161;52.270;10.334;2023-06-10T04:45:32;7.68;;;3.25;;
26474;SDS011;14161;52.270;10.334;2023-06-10T04:47:58;5.85;;;3.17;;
26474;SDS011;14161;52.270;10.334;2023-06-10T04:50:25;6.07;;;3.15;;
26474;SDS011;14161;52.270;10.334;2023-06-10T04:52:51;5.35;;;2.90;;
26474;SDS011;14161;52.270;10.334;2023-06-10T04:55:16;5.50;;;2.97;;
26474;SDS011;14161;52.270;10.334;2023-06-10T04:57:42;5.28;;;3.10;;
26474;SDS011;14161;52.270;10.334;2023-06-10T05:00:07;4.75;;;2.95;;
26474;SDS011;14161;52.270;10.334;2023-06-10T05:02:33;6.13;;;3.13;;
26474;SDS011;14161;52.270;10.334;2023-06-10T05:05:00;9.68;;;3.20;;
26474;SDS011;14161;52.270;10.334;2023-06-10T05:07:25;7.70;;;3.30;;
26474;SDS011;14161;52.270;10.334;2023-06-10T05:09:51;6.10;;;2.67;;
26474;SDS011;14161;52.270;10.334;2023-06-10T05:12:16;4.70;;;3.17;;
26474;SDS011;14161;52.270;10.334;2023-06-10T05:14:42;4.90;;;2.97;;
26474;SDS011;14161;52.270;10.334;2023-06-10T05:17:07;6.90;;;2.75;;
26474;SDS011;14161;52.270;10.334;2023-06-10T05:19:32;5.75;;;3.30;;
26474;SDS011;14161;52.270;10.334;2023-06-10T05:21:58;4.57;;;2.70;;
26474;SDS011;14161;52.270;10.334;2023-06-10T05:24:23;5.80;;;2.78;;
26474;SDS011;14161;52.270;10.334;2023-06-10T05:26:49;4.57;;;2.60;;
26474;SDS011;14161;52.270;10.334;2023-06-10T05:29:14;3.28;;;2.85;;
26474;SDS011;14161;52.270;10.334;2023-06-10T05:31:40;4.50;;;2.70;;
26474;SDS011;14161;52.270;10.334;2023-06-10T05:34:06;9.98;;;3.55;;
26474;SDS011;14161;52.270;10.334;2023-06-10T05:36:32;4.40;;;3.55;;
26474;SDS011;14161;52.270;10.334;2023-06-10T05:38:57;6.07;;;3.55;;
26474;SDS011;14161;52.270;10.334;2023-06-10T05:41:23;5.88;;;3.60;;
26474;SDS011;14161;52.270;10.334;2023-06-10T05:43:48;5.40;;;3.55;;
26474;SDS011;14161;52.270;10.334;2023-06-10T05:46:14;7.80;;;3.22;;
26474;SDS011;14161;52.270;10.334;2023-06-10T05:48:39;6.25;;;3.75;;
26474;SDS011;14161;52.270;10.334;2023-06-10T05:51:05;5.05;;;3.60;;
26474;SDS011;14161;52.270;10.334;2023-06-10T05:53:31;6.38;;;3.53;;
26474;SDS011;14161;52.270;10.334;2023-06-10T05:55:57;6.47;;;3.55;;
26474;SDS011;14161;52.270;10.334;2023-06-10T05:58:23;5.22;;;3.03;;
26474;SDS011;14161;52.270;10.334;2023-06-10T06:00:48;5.88;;;3.28;;
26474;SDS011;14161;52.270;10.334;2023-06-10T06:03:14;6.82;;;3.63;;
26474;SDS011;14161;52.270;10.334;2023-06-10T06:05:39;4.75;;;3.25;;
26474;SDS011;14161;52.270;10.334;2023-06-10T06:08:05;6.18;;;3.10;;
26474;SDS011;14161;52.270;10.334;2023-06-10T06:10:30;5.75;;;3.80;;
26474;SDS011;14161;52.270;10.334;2023-06-10T06:12:56;7.00;;;3.50;;
26474;SDS011;14161;52.270;10.334;2023-06-10T06:15:21;4.90;;;3.17;;
26474;SDS011;14161;52.270;10.334;2023-06-10T06:17:47;5.57;;;3.65;;
26474;SDS011;14161;52.270;10.334;2023-06-10T06:20:12;6.65;;;3.10;;
26474;SDS011;14161;52.270;10.334;2023-06-10T06:22:37;6.10;;;3.65;;
26474;SDS011;14161;52.270;10.334;2023-06-10T06:25:03;6.35;;;3.50;;
26474;SDS011;14161;52.270;10.334;2023-06-10T06:27:29;7.40;;;3.35;;
26474;SDS011;14161;52.270;10.334;2023-06-10T06:29:55;7.20;;;3.72;;
26474;SDS011;14161;52.270;10.334;2023-06-10T06:32:20;6.32;;;3.42;;
26474;SDS011;14161;52.270;10.334;2023-06-10T06:34:47;5.65;;;3.42;;
26474;SDS011;14161;52.270;10.334;2023-06-10T06:37:14;6.45;;;3.78;;
26474;SDS011;14161;52.270;10.334;2023-06-10T06:39:42;6.20;;;3.03;;
26474;SDS011;14161;52.270;10.334;2023-06-10T06:42:08;6.93;;;3.50;;
26474;SDS011;14161;52.270;10.334;2023-06-10T06:44:59;10.60;;;3.97;;
26474;SDS011;14161;52.270;10.334;2023-06-10T06:47:25;5.75;;;3.53;;
26474;SDS011;14161;52.270;10.334;2023-06-10T06:49:51;7.15;;;3.40;;
26474;SDS011;14161;52.270;10.334;2023-06-10T06:52:17;4.40;;;3.28;;
26474;SDS011;14161;52.270;10.334;2023-06-10T06:54:42;8.73;;;4.05;;
26474;SDS011;14161;52.270;10.334;2023-06-10T06:57:08;8.65;;;3.60;;
26474;SDS011;14161;52.270;10.334;2023-06-10T06:59:33;8.20;;;3.67;;
26474;SDS011;14161;52.270;10.334;2023-06-10T07:01:58;5.55;;;3.15;;
26474;SDS011;14161;52.270;10.334;2023-06-10T07:04:24;4.80;;;3.28;;
26474;SDS011;14161;52.270;10.334;2023-06-10T07:06:49;6.25;;;3.47;;
26474;SDS011;14161;52.270;10.334;2023-06-10T07:09:15;6.43;;;3.22;;
26474;SDS011;14161;52.270;10.334;2023-06-10T07:11:40;4.43;;;3.15;;
26474;SDS011;14161;52.270;10.334;2023-06-10T07:14:07;5.97;;;3.30;;
26474;SDS011;14161;52.270;10.334;2023-06-10T07:16:33;6.35;;;3.47;;
26474;SDS011;14161;52.270;10.334;2023-06-10T07:18:59;6.10;;;3.85;;
26474;SDS011;14161;52.270;10.334;2023-06-10T07:21:24;8.38;;;3.97;;
26474;SDS011;14161;52.270;10.334;2023-06-10T07:23:50;7.60;;;3.60;;
26474;SDS011;14161;52.270;10.334;2023-06-10T07:26:18;6.25;;;3.35;;
26474;SDS011;14161;52.270;10.334;2023-06-10T07:28:44;5.03;;;3.58;;
26474;SDS011;14161;52.270;10.334;2023-06-10T07:31:09;5.15;;;3.25;;
26474;SDS011;14161;52.270;10.334;2023-06-10T07:33:37;7.32;;;3.85;;
26474;SDS011;14161;52.270;10.334;2023-06-10T07:36:04;5.13;;;3.15;;
26474;SDS011;14161;52.270;10.334;2023-06-10T07:38:30;5.35;;;3.22;;
26474;SDS011;14161;52.270;10.334;2023-06-10T07:40:55;6.55;;;3.42;;
26474;SDS011;14161;52.270;10.334;2023-06-10T07:43:21;8.05;;;3.63;;
26474;SDS011;14161;52.270;10.334;2023-06-10T07:45:47;4.88;;;2.97;;
26474;SDS011;14161;52.270;10.334;2023-06-10T07:48:12;5.95;;;3.33;;
26474;SDS011;14161;52.270;10.334;2023-06-10T07:50:38;5.15;;;3.42;;
26474;SDS011;14161;52.270;10.334;2023-06-10T07:53:03;7.53;;;3.45;;
26474;SDS011;14161;52.270;10.334;2023-06-10T07:55:29;5.93;;;3.90;;
26474;SDS011;14161;52.270;10.334;2023-06-10T07:57:54;4.57;;;3.10;;
26474;SDS011;14161;52.270;10.334;2023-06-10T08:00:20;5.50;;;3.15;;
26474;SDS011;14161;52.270;10.334;2023-06-10T08:02:46;4.43;;;3.05;;
26474;SDS011;14161;52.270;10.334;2023-06-10T08:05:12;8.10;;;3.45;;
26474;SDS011;14161;52.270;10.334;2023-06-10T08:07:37;5.18;;;3.10;;
26474;SDS011;14161;52.270;10.334;2023-06-10T08:10:04;6.43;;;3.20;;
26474;SDS011;14161;52.270;10.334;2023-06-10T08:12:30;6.05;;;3.30;;
26474;SDS011;14161;52.270;10.334;2023-06-10T08:14:56;6.00;;;3.50;;
26474;SDS011;14161;52.270;10.334;2023-06-10T08:17:22;4.80;;;3.00;;
26474;SDS011;14161;52.270;10.334;2023-06-10T08:19:47;4.20;;;3.15;;
26474;SDS011;14161;52.270;10.334;2023-06-10T08:22:13;6.15;;;3.05;;
26474;SDS011;14161;52.270;10.334;2023-06-10T08:24:38;4.47;;;3.28;;
26474;SDS011;14161;52.270;10.334;2023-06-10T08:27:04;6.72;;;3.88;;
26474;SDS011;14161;52.270;10.334;2023-06-10T08:29:31;4.72;;;2.90;;
26474;SDS011;14161;52.270;10.334;2023-06-10T08:31:57;7.07;;;3.65;;
26474;SDS011;14161;52.270;10.334;2023-06-10T08:34:22;7.43;;;3.53;;
26474;SDS011;14161;52.270;10.334;2023-06-10T08:36:47;10.93;;;3.92;;
26474;SDS011;14161;52.270;10.334;2023-06-10T08:39:18;6.88;;;3.65;;
26474;SDS011;14161;52.270;10.334;2023-06-10T08:41:45;6.05;;;3.35;;
26474;SDS011;14161;52.270;10.334;2023-06-10T08:44:22;7.07;;;3.25;;
26474;SDS011;14161;52.270;10.334;2023-06-10T08:46:53;6.88;;;3.58;;
26474;SDS011;14161;52.270;10.334;2023-06-10T08:49:21;4.93;;;2.90;;
26474;SDS011;14161;52.270;10.334;2023-06-10T08:51:49;6.60;;;3.28;;
26474;SDS011;14161;52.270;10.334;2023-06-10T08:54:17;5.65;;;3.28;;
26474;SDS011;14161;52.270;10.334;2023-06-10T08:56:46;5.60;;;3.55;;
26474;SDS011;14161;52.270;10.334;2023-06-10T08:59:14;7.15;;;3.45;;
26474;SDS011;14161;52.270;10.334;2023-06-10T09:01:41;5.65;;;3.22;;
26474;SDS011;14161;52.270;10.334;2023-06-10T09:04:08;6.85;;;3.50;;
26474;SDS011;14161;52.270;10.334;2023-06-10T09:06:33;4.75;;;3.42;;
26474;SDS011;14161;52.270;10.334;2023-06-10T09:08:59;6.60;;;3.20;;
26474;SDS011;14161;52.270;10.334;2023-06-10T09:11:25;7.20;;;3.33;;
26474;SDS011;14161;52.270;10.334;2023-06-10T09:13:52;4.82;;;3.30;;
26474;SDS011;14161;52.270;10.334;2023-06-10T09:16:17;5.80;;;3.17;;
26474;SDS011;14161;52.270;10.334;2023-06-10T09:18:42;5.80;;;3.50;;
26474;SDS011;14161;52.270;10.334;2023-06-10T09:21:08;6.68;;;3.38;;
26474;SDS011;14161;52.270;10.334;2023-06-10T09:23:34;6.25;;;3.53;;
